Time;durP1;ratioP1;P1;durP2;ratioP2;P2;SDS_P1;SDS_P2;PMS_P1;PMS_P2;Temp;Humidity;BMP_temperature;BMP_pressure;BME280_temperature;BME280_humidity;BME280_pressure;Samples;Min_cycle;Max_cycle;Signal;HPM_P1;HPM_P2
2023/01/06 00:00:25;;;;;;;;;;;;;;;19.31;62.89;99438.03;2072902;28;20955;-76
2023/01/06 00:01:27;;;;;;;;;;;;;;;19.30;62.94;99442.53;2079086;28;19927;-75
2023/01/06 00:02:27;;;;;;;;;;;;;;;19.30;62.81;99450.63;2075848;28;19975;-75
2023/01/06 00:03:29;;;;;;;;;;;;;;;19.28;62.75;99451.81;2076099;28;19924;-76
2023/01/06 00:04:29;;;;;;;;;;;;;;;19.29;63.06;99453.50;2076439;28;19921;-74
2023/01/06 00:05:31;;;;;;;;;;;;;;;19.27;62.80;99452.84;2077406;28;20179;-76
2023/01/06 00:06:33;;;;;;;;;;;;;;;19.27;62.70;99447.47;2078607;28;20035;-75
2023/01/06 00:07:33;;;;;;;;;;;;;;;19.26;62.91;99448.50;2074436;28;20551;-75
2023/01/06 00:08:35;;;;;;;;;;;;;;;19.25;62.73;99453.06;2074823;28;20055;-75
2023/01/06 00:09:36;;;;;;;;;;;;;;;19.25;63.15;99454.88;2072704;28;20018;-75
2023/01/06 00:10:38;;;;;;;;;;;;;;;19.24;63.19;99454.06;2075726;28;19928;-75
2023/01/06 00:11:38;;;;;;;;;;;;;;;19.24;62.79;99453.25;2074756;28;20385;-74
2023/01/06 00:12:40;;;;;;;;;;;;;;;19.25;63.00;99453.06;2073739;28;19924;-74
2023/01/06 00:13:40;;;;;;;;;;;;;;;19.24;62.93;99453.25;2074552;28;19932;-74
2023/01/06 00:14:45;;;;;;;;;;;;;;;19.22;63.00;99453.41;2074056;28;19999;-74
2023/01/06 00:15:45;;;;;;;;;;;;;;;19.22;63.24;99445.34;2066463;28;19931;-76
2023/01/06 00:16:47;;;;;;;;;;;;;;;19.21;62.85;99449.06;2073251;28;19924;-75
2023/01/06 00:17:47;;;;;;;;;;;;;;;19.21;63.06;99454.44;2072436;28;19928;-74
2023/01/06 00:18:49;;;;;;;;;;;;;;;19.19;62.99;99453.78;2079054;28;20067;-76
2023/01/06 00:19:50;;;;;;;;;;;;;;;19.19;63.25;99449.28;2076390;28;19936;-74
2023/01/06 00:20:52;;;;;;;;;;;;;;;19.17;63.32;99451.31;2077517;28;20506;-76
2023/01/06 00:21:52;;;;;;;;;;;;;;;19.18;63.17;99455.66;2074797;28;19920;-75
2023/01/06 00:22:54;;;;;;;;;;;;;;;19.16;63.04;99462.22;2076601;28;24568;-74
2023/01/06 00:23:55;;;;;;;;;;;;;;;19.16;62.93;99456.84;2079141;28;19928;-76
2023/01/06 00:24:56;;;;;;;;;;;;;;;19.16;63.02;99459.53;2077707;28;19931;-75
2023/01/06 00:25:57;;;;;;;;;;;;;;;19.15;63.17;99461.41;2076831;28;20006;-76
2023/01/06 00:26:58;;;;;;;;;;;;;;;19.15;63.15;99449.81;2075517;28;19937;-75
2023/01/06 00:27:59;;;;;;;;;;;;;;;19.14;63.22;99458.91;2074771;28;19970;-75
2023/01/06 00:29:00;;;;;;;;;;;;;;;19.16;63.00;99456.84;2083129;28;19925;-74
2023/01/06 00:30:02;;;;;;;;;;;;;;;19.14;62.82;99459.75;2080579;28;19962;-75
2023/01/06 00:31:08;;;;;;;;;;;;;;;19.12;62.93;99459.09;2077844;28;20023;-76
2023/01/06 00:32:08;;;;;;;;;;;;;;;19.14;63.19;99458.91;2075880;28;19928;-75
2023/01/06 00:33:10;;;;;;;;;;;;;;;19.13;63.10;99465.31;2078484;28;19929;-76
2023/01/06 00:34:11;;;;;;;;;;;;;;;19.11;63.04;99454.75;2077725;28;19921;-76
2023/01/06 00:35:12;;;;;;;;;;;;;;;19.10;63.05;99463.00;2079206;28;19962;-75
2023/01/06 00:36:14;;;;;;;;;;;;;;;19.11;62.90;99459.25;2074213;28;19929;-75
2023/01/06 00:37:15;;;;;;;;;;;;;;;19.08;63.18;99463.16;2081640;28;19928;-74
2023/01/06 00:38:16;;;;;;;;;;;;;;;19.07;62.88;99457.97;2077415;28;19928;-76
2023/01/06 00:39:16;;;;;;;;;;;;;;;19.08;63.23;99454.25;2077345;28;19936;-76
2023/01/06 00:40:18;;;;;;;;;;;;;;;19.07;63.07;99458.81;2079202;28;19925;-76
2023/01/06 00:42:39;;;;;;;;;;;;;;;19.06;63.00;99459.84;2078123;28;19921;-74
2023/01/06 00:43:39;;;;;;;;;;;;;;;19.05;62.98;99454.63;2072954;28;19936;-75
2023/01/06 00:44:41;;;;;;;;;;;;;;;19.04;63.20;99464.56;2079147;28;19920;-74
2023/01/06 00:45:44;;;;;;;;;;;;;;;19.03;62.98;99459.38;2077279;28;19960;-75
2023/01/06 00:46:45;;;;;;;;;;;;;;;19.01;63.13;99458.75;2071935;28;20192;-76
2023/01/06 00:47:46;;;;;;;;;;;;;;;19.01;63.26;99458.75;2073977;28;20840;-74
2023/01/06 00:48:47;;;;;;;;;;;;;;;19.01;63.34;99464.13;2069669;28;19925;-75
2023/01/06 00:49:48;;;;;;;;;;;;;;;19.00;63.01;99459.75;2068318;28;19971;-75
2023/01/06 00:50:49;;;;;;;;;;;;;;;18.98;63.12;99457.25;2075819;28;19938;-74
2023/01/06 00:51:50;;;;;;;;;;;;;;;18.98;62.99;99465.31;2082985;28;20405;-74
2023/01/06 00:52:51;;;;;;;;;;;;;;;18.96;63.22;99467.34;2077378;28;19929;-74
2023/01/06 00:53:52;;;;;;;;;;;;;;;18.95;63.25;99463.84;2076524;28;20164;-75
2023/01/06 00:54:54;;;;;;;;;;;;;;;18.96;63.38;99476.25;2079304;28;19925;-74
2023/01/06 00:55:58;;;;;;;;;;;;;;;18.95;63.39;99466.53;2075703;28;20213;-76
2023/01/06 00:57:00;;;;;;;;;;;;;;;18.93;63.40;99473.94;2079455;28;19970;-74
2023/01/06 00:58:00;;;;;;;;;;;;;;;18.93;63.40;99473.94;2074597;28;20012;-76
2023/01/06 00:59:02;;;;;;;;;;;;;;;18.92;63.18;99471.44;2076614;28;20396;-76
2023/01/06 01:00:04;;;;;;;;;;;;;;;18.93;63.41;99476.63;2077525;28;20314;-76
2023/01/06 01:01:06;;;;;;;;;;;;;;;18.91;63.46;99467.91;2076749;28;19990;-76
2023/01/06 01:02:07;;;;;;;;;;;;;;;18.93;63.42;99468.56;2081743;28;19932;-76
2023/01/06 01:03:08;;;;;;;;;;;;;;;18.92;63.18;99468.75;2073969;28;20553;-74
2023/01/06 01:04:10;;;;;;;;;;;;;;;18.90;63.18;99474.31;2072940;28;19935;-76
2023/01/06 01:05:10;;;;;;;;;;;;;;;18.89;63.48;99467.28;2071526;28;19952;-76
2023/01/06 01:06:15;;;;;;;;;;;;;;;18.88;63.06;99473.66;2076008;28;20552;-75
2023/01/06 01:07:17;;;;;;;;;;;;;;;18.87;63.45;99469.28;2080157;28;20008;-75
2023/01/06 01:08:17;;;;;;;;;;;;;;;18.88;63.48;99473.66;2078848;28;19925;-74
2023/01/06 01:09:20;;;;;;;;;;;;;;;18.85;63.42;99470.50;2076391;28;20318;-74
2023/01/06 01:10:21;;;;;;;;;;;;;;;18.85;63.31;99476.69;2075990;28;19928;-76
2023/01/06 01:12:42;;;;;;;;;;;;;;;18.82;63.36;99471.69;2078995;28;19920;-75
2023/01/06 01:13:42;;;;;;;;;;;;;;;18.84;63.31;99475.03;2075401;28;19939;-74
2023/01/06 01:14:46;;;;;;;;;;;;;;;18.83;63.51;99473.34;2074687;28;20291;-75
2023/01/06 01:15:48;;;;;;;;;;;;;;;18.82;63.36;99479.75;2073932;28;20821;-76
2023/01/06 01:16:51;;;;;;;;;;;;;;;18.83;63.15;99473.34;2075522;28;19928;-76
2023/01/06 01:17:53;;;;;;;;;;;;;;;18.83;63.22;99469.84;2077984;28;21591;-75
2023/01/06 01:18:53;;;;;;;;;;;;;;;18.82;63.44;99466.31;2076166;28;19921;-76
2023/01/06 01:19:56;;;;;;;;;;;;;;;18.80;63.31;99476.41;2079832;28;19982;-76
2023/01/06 01:20:57;;;;;;;;;;;;;;;18.79;63.31;99472.06;2066853;28;19928;-75
2023/01/06 01:21:58;;;;;;;;;;;;;;;18.79;63.29;99474.75;2078824;28;19929;-75
2023/01/06 01:22:59;;;;;;;;;;;;;;;18.78;63.55;99473.09;2077057;28;19925;-75
2023/01/06 01:24:01;;;;;;;;;;;;;;;18.77;63.48;99484.03;2076905;28;19931;-75
2023/01/06 01:25:02;;;;;;;;;;;;;;;18.75;63.75;99486.91;2073963;28;19952;-75
2023/01/06 01:26:03;;;;;;;;;;;;;;;18.75;63.54;99482.38;2077459;28;19932;-75
2023/01/06 01:27:04;;;;;;;;;;;;;;;18.77;63.38;99484.84;2074753;28;19931;-76
2023/01/06 01:28:05;;;;;;;;;;;;;;;18.77;63.53;99484.84;2075318;28;19936;-75
2023/01/06 01:29:06;;;;;;;;;;;;;;;18.75;63.51;99481.53;2068530;28;19954;-75
2023/01/06 01:30:08;;;;;;;;;;;;;;;18.74;63.53;99486.06;2073942;28;19948;-74
2023/01/06 01:31:09;;;;;;;;;;;;;;;18.73;63.30;99480.84;2077493;28;19967;-74
2023/01/06 01:32:12;;;;;;;;;;;;;;;18.71;63.48;99475.63;2076084;28;19944;-74
2023/01/06 01:33:12;;;;;;;;;;;;;;;18.71;63.67;99482.88;2077365;28;19924;-75
2023/01/06 01:34:15;;;;;;;;;;;;;;;18.71;63.41;99478.31;2071526;28;20274;-74
2023/01/06 01:35:15;;;;;;;;;;;;;;;18.72;63.59;99482.72;2076189;28;21080;-74
2023/01/06 01:36:18;;;;;;;;;;;;;;;18.71;63.39;99481.00;2073828;28;19928;-74
2023/01/06 01:37:19;;;;;;;;;;;;;;;18.70;63.33;99479.34;2073113;28;19928;-74
2023/01/06 01:38:20;;;;;;;;;;;;;;;18.69;63.42;99482.22;2076253;28;19925;-76
2023/01/06 01:39:22;;;;;;;;;;;;;;;18.67;63.33;99478.91;2074779;28;19929;-76
2023/01/06 01:40:22;;;;;;;;;;;;;;;18.68;63.42;99489.44;2072352;28;20565;-75
2023/01/06 01:41:25;;;;;;;;;;;;;;;18.68;63.41;99480.56;2070459;28;19937;-75
2023/01/06 01:42:26;;;;;;;;;;;;;;;18.66;63.45;99485.28;2073375;28;19928;-74
2023/01/06 01:43:41;;;;;;;;;;;;;;;18.66;63.47;99487.97;2078230;28;20055;-76
2023/01/06 01:44:54;;;;;;;;;;;;;;;18.66;63.32;99487.97;2073049;28;19932;-77
2023/01/06 01:45:55;;;;;;;;;;;;;;;18.64;63.80;99487.31;2073808;28;20331;-76
2023/01/06 01:46:56;;;;;;;;;;;;;;;18.63;63.89;99482.94;2073057;28;19933;-75
2023/01/06 01:48:02;;;;;;;;;;;;;;;18.64;63.54;99484.66;2073150;28;19928;-75
2023/01/06 01:49:04;;;;;;;;;;;;;;;18.62;63.57;99478.59;2072462;28;19952;-75
2023/01/06 01:50:09;;;;;;;;;;;;;;;18.62;63.61;99487.50;2072805;28;19939;-74
2023/01/06 01:51:12;;;;;;;;;;;;;;;18.62;63.40;99481.28;2074636;28;21006;-75
2023/01/06 01:52:14;;;;;;;;;;;;;;;18.61;63.48;99469.72;2072388;28;22251;-75
2023/01/06 01:53:19;;;;;;;;;;;;;;;18.63;63.63;99477.59;2074637;28;19933;-74
2023/01/06 01:54:22;;;;;;;;;;;;;;;18.61;63.56;99469.72;2078766;28;19921;-76
2023/01/06 01:55:24;;;;;;;;;;;;;;;18.59;63.67;99469.06;2075386;28;19924;-77
2023/01/06 01:56:27;;;;;;;;;;;;;;;18.59;63.55;99473.59;2072755;28;19928;-74
2023/01/06 01:57:31;;;;;;;;;;;;;;;18.60;63.75;99467.19;2078825;28;19925;-74
2023/01/06 01:58:35;;;;;;;;;;;;;;;18.61;63.67;99482.28;2064477;28;19970;-76
2023/01/06 01:59:38;;;;;;;;;;;;;;;18.57;63.56;99475.63;2076353;28;19929;-76
2023/01/06 02:00:40;;;;;;;;;;;;;;;18.56;63.83;99471.28;2073335;28;19928;-74
2023/01/06 02:01:41;;;;;;;;;;;;;;;18.56;63.85;99473.97;2073739;28;19966;-75
2023/01/06 02:02:42;;;;;;;;;;;;;;;18.56;63.53;99477.50;2071536;28;19925;-76
2023/01/06 02:03:45;;;;;;;;;;;;;;;18.53;63.74;99476.00;2074199;28;20362;-75
2023/01/06 02:04:47;;;;;;;;;;;;;;;18.53;63.79;99477.84;2075184;28;20450;-74
2023/01/06 02:05:51;;;;;;;;;;;;;;;18.50;63.81;99472.84;2071631;28;19940;-76
2023/01/06 02:06:52;;;;;;;;;;;;;;;18.51;63.85;99477.19;2074451;28;19925;-74
2023/01/06 02:07:56;;;;;;;;;;;;;;;18.50;63.78;99476.38;2076118;28;19930;-76
2023/01/06 02:09:04;;;;;;;;;;;;;;;18.50;63.75;99472.84;2076048;28;19928;-75
2023/01/06 02:10:09;;;;;;;;;;;;;;;18.49;63.60;99472.00;2073596;28;19921;-76
2023/01/06 02:11:10;;;;;;;;;;;;;;;18.50;63.64;99473.69;2067797;28;19952;-75
2023/01/06 02:12:11;;;;;;;;;;;;;;;18.51;63.42;99480.72;2070947;28;20002;-75
2023/01/06 02:13:13;;;;;;;;;;;;;;;18.48;63.70;99469.50;2074845;28;19943;-75
2023/01/06 02:14:14;;;;;;;;;;;;;;;18.47;63.56;99474.06;2073008;28;19929;-75
2023/01/06 02:15:17;;;;;;;;;;;;;;;18.46;63.63;99472.34;2074032;28;21545;-75
2023/01/06 02:16:21;;;;;;;;;;;;;;;18.45;64.00;99469.88;2070436;28;19967;-74
2023/01/06 02:17:35;;;;;;;;;;;;;;;18.46;63.84;99464.31;2069567;28;20006;-76
2023/01/06 02:18:45;;;;;;;;;;;;;;;18.43;63.73;99461.97;2071485;28;19933;-77
2023/01/06 02:20:01;;;;;;;;;;;;;;;18.42;63.80;99460.31;2074201;28;20055;-74
2023/01/06 02:21:21;;;;;;;;;;;;;;;18.42;63.74;99463.00;2072228;28;20838;-74
2023/01/06 02:22:34;;;;;;;;;;;;;;;18.42;63.79;99464.88;2074764;28;20301;-75
2023/01/06 02:23:47;;;;;;;;;;;;;;;18.41;64.03;99460.50;2069701;28;19924;-76
2023/01/06 02:25:07;;;;;;;;;;;;;;;18.41;63.93;99464.00;2072532;28;19933;-74
2023/01/06 02:26:26;;;;;;;;;;;;;;;18.42;63.72;99465.69;2067982;28;20376;-76
2023/01/06 02:27:43;;;;;;;;;;;;;;;18.40;63.95;99461.53;2068376;28;19936;-76
2023/01/06 02:29:04;;;;;;;;;;;;;;;18.39;63.75;99452.63;2071403;28;20313;-75
2023/01/06 02:30:30;;;;;;;;;;;;;;;18.39;63.96;99451.81;2069289;28;19931;-76
2023/01/06 02:31:40;;;;;;;;;;;;;;;18.39;64.03;99451.81;2048523;28;21949;-74
2023/01/06 02:32:59;;;;;;;;;;;;;;;18.39;63.83;99452.63;2041808;28;19936;-75
2023/01/06 02:34:03;;;;;;;;;;;;;;;18.37;64.07;99457.34;2067322;28;20292;-75
2023/01/06 02:35:14;;;;;;;;;;;;;;;18.36;64.05;99461.06;2073296;28;19931;-76
2023/01/06 02:36:19;;;;;;;;;;;;;;;18.36;64.15;99460.19;2071266;28;19925;-76
2023/01/06 02:37:29;;;;;;;;;;;;;;;18.36;63.84;99461.06;2079703;28;19924;-75
2023/01/06 02:38:40;;;;;;;;;;;;;;;18.36;63.98;99460.19;2073464;28;19924;-74
2023/01/06 02:39:45;;;;;;;;;;;;;;;18.34;63.89;99462.25;2076241;28;19928;-77
2023/01/06 02:40:54;;;;;;;;;;;;;;;18.33;64.11;99455.19;2074451;28;19951;-74
2023/01/06 02:41:59;;;;;;;;;;;;;;;18.30;64.11;99449.19;2073577;28;19932;-76
2023/01/06 02:43:06;;;;;;;;;;;;;;;18.32;64.15;99457.06;2069992;28;19951;-74
2023/01/06 02:44:12;;;;;;;;;;;;;;;18.32;64.02;99457.06;2071470;28;19925;-74
2023/01/06 02:45:19;;;;;;;;;;;;;;;18.30;63.95;99451.88;2071582;28;19978;-74
2023/01/06 02:46:25;;;;;;;;;;;;;;;18.30;64.07;99449.19;2070563;28;19982;-76
2023/01/06 02:47:33;;;;;;;;;;;;;;;18.30;63.94;99451.88;2075944;28;20837;-75
2023/01/06 02:48:37;;;;;;;;;;;;;;;18.29;63.80;99450.19;2074806;28;20390;-74
2023/01/06 02:49:43;;;;;;;;;;;;;;;18.30;63.93;99453.69;2071946;28;19978;-76
2023/01/06 02:50:45;;;;;;;;;;;;;;;18.29;64.11;99449.34;2077372;28;20749;-76
2023/01/06 02:51:51;;;;;;;;;;;;;;;18.28;63.81;99453.91;2075885;28;19986;-74
2023/01/06 02:52:55;;;;;;;;;;;;;;;18.26;64.17;99450.56;2074603;28;19994;-74
2023/01/06 02:54:04;;;;;;;;;;;;;;;18.26;64.10;99449.72;2073161;28;19924;-76
2023/01/06 02:55:09;;;;;;;;;;;;;;;18.26;64.00;99447.03;2075154;28;19920;-74
2023/01/06 02:56:11;;;;;;;;;;;;;;;18.25;63.92;99454.28;2074083;28;20020;-74
2023/01/06 02:57:14;;;;;;;;;;;;;;;18.25;63.75;99453.44;2073845;28;20398;-75
2023/01/06 02:58:20;;;;;;;;;;;;;;;18.25;63.88;99448.06;2074427;28;20120;-75
2023/01/06 02:59:23;;;;;;;;;;;;;;;18.23;63.93;99442.03;2072619;28;20294;-75
2023/01/06 03:00:26;;;;;;;;;;;;;;;18.23;64.25;99436.66;2069416;28;20004;-75
2023/01/06 03:01:30;;;;;;;;;;;;;;;18.22;64.03;99443.03;2075206;28;20470;-74
2023/01/06 03:02:34;;;;;;;;;;;;;;;18.22;64.35;99440.34;2071246;28;20023;-75
2023/01/06 03:03:37;;;;;;;;;;;;;;;18.23;64.12;99436.66;2072845;28;20026;-74
2023/01/06 03:04:41;;;;;;;;;;;;;;;18.24;63.89;99438.31;2069741;28;19966;-74
2023/01/06 03:05:43;;;;;;;;;;;;;;;18.23;63.90;99440.19;2073382;28;19957;-76
2023/01/06 03:06:47;;;;;;;;;;;;;;;18.22;64.11;99443.91;2075157;28;20007;-76
2023/01/06 03:07:48;;;;;;;;;;;;;;;18.21;63.96;99444.06;2079488;28;19924;-75
2023/01/06 03:08:52;;;;;;;;;;;;;;;18.20;64.09;99442.41;2072577;28;19947;-75
2023/01/06 03:09:52;;;;;;;;;;;;;;;18.19;64.07;99443.41;2074741;28;19921;-74
2023/01/06 03:10:55;;;;;;;;;;;;;;;18.19;64.25;99438.03;2075576;28;19931;-74
2023/01/06 03:11:55;;;;;;;;;;;;;;;18.18;63.97;99433.69;2068380;28;20872;-74
2023/01/06 03:13:01;;;;;;;;;;;;;;;18.18;64.23;99436.38;2074271;28;19929;-75
2023/01/06 03:14:04;;;;;;;;;;;;;;;18.18;64.00;99447.94;2073583;28;19925;-76
2023/01/06 03:15:06;;;;;;;;;;;;;;;18.17;63.98;99435.53;2072564;28;20289;-75
2023/01/06 03:16:07;;;;;;;;;;;;;;;18.17;64.09;99434.72;2074175;28;20023;-76
2023/01/06 03:17:09;;;;;;;;;;;;;;;18.16;64.02;99438.41;2073777;28;19936;-74
2023/01/06 03:18:11;;;;;;;;;;;;;;;18.16;64.42;99438.41;2068270;28;20397;-74
2023/01/06 03:19:12;;;;;;;;;;;;;;;18.14;64.31;99435.09;2075755;28;19925;-75
2023/01/06 03:20:13;;;;;;;;;;;;;;;18.14;64.06;99430.53;2071776;28;20283;-74
2023/01/06 03:21:17;;;;;;;;;;;;;;;18.13;64.32;99434.22;2073312;28;20010;-74
2023/01/06 03:22:18;;;;;;;;;;;;;;;18.13;64.24;99422.66;2076771;28;19971;-75
2023/01/06 03:23:21;;;;;;;;;;;;;;;18.11;64.24;99422.84;2071803;28;19928;-76
2023/01/06 03:24:21;;;;;;;;;;;;;;;18.12;64.27;99426.38;2080465;28;20524;-74
2023/01/06 03:25:23;;;;;;;;;;;;;;;18.12;64.26;99431.72;2072077;28;19928;-75
2023/01/06 03:26:23;;;;;;;;;;;;;;;18.09;64.28;99430.25;2076991;28;19932;-75
2023/01/06 03:27:26;;;;;;;;;;;;;;;18.09;64.34;99427.56;2079069;28;19925;-74
2023/01/06 03:28:27;;;;;;;;;;;;;;;18.09;64.12;99427.56;2079129;28;19929;-76
2023/01/06 03:29:28;;;;;;;;;;;;;;;18.08;64.17;99431.28;2072808;28;21021;-74
2023/01/06 03:30:40;;;;;;;;;;;;;;;18.07;64.22;99424.22;2077013;28;19924;-75
2023/01/06 03:32:00;;;;;;;;;;;;;;;18.05;64.33;99423.53;2076243;28;21025;-75
2023/01/06 03:33:05;;;;;;;;;;;;;;;18.07;64.27;99425.03;2077462;28;19925;-74
2023/01/06 03:34:13;;;;;;;;;;;;;;;18.07;64.16;99425.03;2074389;28;19967;-76
2023/01/06 03:35:20;;;;;;;;;;;;;;;18.07;64.34;99425.03;2074933;28;20027;-76
2023/01/06 03:36:28;;;;;;;;;;;;;;;18.06;64.30;99425.25;2075299;28;19928;-74
2023/01/06 03:37:37;;;;;;;;;;;;;;;18.05;64.41;99424.41;2078371;28;20011;-74
2023/01/06 03:38:42;;;;;;;;;;;;;;;18.06;64.30;99423.38;2076843;28;19935;-74
2023/01/06 03:39:47;;;;;;;;;;;;;;;18.04;64.09;99419.22;2077688;28;20717;-75
2023/01/06 03:40:53;;;;;;;;;;;;;;;18.05;64.20;99426.22;2079105;28;19927;-74
2023/01/06 03:43:24;;;;;;;;;;;;;;;18.04;64.38;99414.66;2080259;28;20329;-75
2023/01/06 03:44:33;;;;;;;;;;;;;;;18.05;64.10;99426.22;2079330;28;19933;-74
2023/01/06 03:45:39;;;;;;;;;;;;;;;18.04;64.09;99421.88;2077197;28;20553;-76
2023/01/06 03:46:41;;;;;;;;;;;;;;;18.03;64.14;99417.53;2078895;28;20016;-75
2023/01/06 03:47:49;;;;;;;;;;;;;;;18.02;64.29;99419.38;2074241;28;19924;-75
2023/01/06 03:48:57;;;;;;;;;;;;;;;18.03;64.05;99418.38;2078402;28;19921;-74
2023/01/06 03:50:03;;;;;;;;;;;;;;;18.02;64.20;99415.84;2072988;28;19925;-76
2023/01/06 03:51:09;;;;;;;;;;;;;;;18.01;64.24;99414.19;2080216;28;20011;-74
2023/01/06 03:52:12;;;;;;;;;;;;;;;18.02;64.11;99421.22;2077547;28;19928;-75
2023/01/06 03:53:17;;;;;;;;;;;;;;;18.01;64.03;99414.19;2077442;28;19975;-74
2023/01/06 03:54:23;;;;;;;;;;;;;;;18.01;64.34;99419.56;2077358;28;19928;-75
2023/01/06 03:55:30;;;;;;;;;;;;;;;18.01;64.36;99414.19;2075734;28;20038;-76
2023/01/06 03:56:32;;;;;;;;;;;;;;;17.98;64.11;99420.75;2078475;28;20736;-75
2023/01/06 03:57:35;;;;;;;;;;;;;;;18.00;64.08;99418.75;2077353;28;19925;-75
2023/01/06 03:58:36;;;;;;;;;;;;;;;18.00;64.31;99423.28;2071217;28;20398;-75
2023/01/06 03:59:46;;;;;;;;;;;;;;;18.00;64.20;99423.28;2074751;28;20011;-74
2023/01/06 04:00:47;;;;;;;;;;;;;;;17.98;64.29;99422.63;2076486;28;20552;-76
2023/01/06 04:01:49;;;;;;;;;;;;;;;17.96;64.27;99416.59;2073978;28;19929;-74
2023/01/06 04:02:51;;;;;;;;;;;;;;;17.97;64.28;99418.25;2074855;28;20397;-75
2023/01/06 04:03:52;;;;;;;;;;;;;;;17.95;64.31;99415.75;2079099;28;19920;-76
2023/01/06 04:05:02;;;;;;;;;;;;;;;17.96;64.50;99420.09;2078897;28;19921;-74
2023/01/06 04:06:03;;;;;;;;;;;;;;;17.95;64.26;99421.13;2073642;28;19928;-75
2023/01/06 04:07:05;;;;;;;;;;;;;;;17.95;64.10;99409.56;2070987;28;19931;-76
2023/01/06 04:08:05;;;;;;;;;;;;;;;17.96;64.16;99414.72;2077584;28;19998;-74
2023/01/06 04:09:07;;;;;;;;;;;;;;;17.96;64.09;99417.41;2073991;28;19929;-76
2023/01/06 04:10:08;;;;;;;;;;;;;;;17.95;64.19;99410.38;2077384;28;20396;-74
2023/01/06 04:12:37;;;;;;;;;;;;;;;17.97;64.19;99408.38;2077620;28;19928;-74
2023/01/06 04:12:37;;;;;;;;;;;;;;;17.97;64.22;99412.88;2075138;28;20076;-74
2023/01/06 04:13:38;;;;;;;;;;;;;;;17.94;64.09;99411.41;2068329;28;19929;-75
2023/01/06 04:14:39;;;;;;;;;;;;;;;17.94;64.33;99405.19;2073651;28;19929;-74
2023/01/06 04:15:40;;;;;;;;;;;;;;;17.94;64.14;99411.41;2075188;28;19924;-75
2023/01/06 04:16:41;;;;;;;;;;;;;;;17.92;64.37;99410.75;2076403;28;19924;-75
2023/01/06 04:17:42;;;;;;;;;;;;;;;17.92;64.36;99405.38;2076387;28;19920;-76
2023/01/06 04:18:44;;;;;;;;;;;;;;;17.92;64.23;99407.25;2076611;28;19924;-76
2023/01/06 04:19:44;;;;;;;;;;;;;;;17.92;64.36;99404.56;2080493;28;19990;-74
2023/01/06 04:20:47;;;;;;;;;;;;;;;17.91;64.36;99411.75;2077063;28;20637;-74
2023/01/06 04:21:48;;;;;;;;;;;;;;;17.91;64.33;99402.88;2081074;28;19920;-76
2023/01/06 04:22:49;;;;;;;;;;;;;;;17.90;64.26;99404.72;2080593;28;19926;-74
2023/01/06 04:23:50;;;;;;;;;;;;;;;17.89;64.33;99408.44;2075203;28;20478;-75
2023/01/06 04:24:51;;;;;;;;;;;;;;;17.89;64.20;99410.28;2074328;28;20796;-76
2023/01/06 04:25:52;;;;;;;;;;;;;;;17.90;64.37;99407.41;2073758;28;20688;-74
2023/01/06 04:26:54;;;;;;;;;;;;;;;17.89;64.13;99410.28;2074579;28;19978;-76
2023/01/06 04:27:54;;;;;;;;;;;;;;;17.89;64.16;99407.59;2075666;28;19925;-76
2023/01/06 04:28:56;;;;;;;;;;;;;;;17.88;64.35;99411.28;2076765;28;19935;-76
2023/01/06 04:29:56;;;;;;;;;;;;;;;17.88;64.21;99411.28;2078548;28;19921;-76
2023/01/06 04:30:58;;;;;;;;;;;;;;;17.88;64.26;99422.03;2059241;28;20431;-74
2023/01/06 04:31:59;;;;;;;;;;;;;;;17.87;64.45;99410.47;2073056;28;19928;-74
2023/01/06 04:33:00;;;;;;;;;;;;;;;17.87;64.51;99413.13;2079436;28;20019;-76
2023/01/06 04:34:01;;;;;;;;;;;;;;;17.87;64.24;99418.50;2076442;28;19936;-74
2023/01/06 04:35:02;;;;;;;;;;;;;;;17.83;64.41;99417.22;2072007;28;20203;-75
2023/01/06 04:36:05;;;;;;;;;;;;;;;17.83;64.39;99411.84;2075082;28;21379;-75
2023/01/06 04:37:06;;;;;;;;;;;;;;;17.90;64.14;99420.00;2074418;28;19925;-74
2023/01/06 04:38:08;;;;;;;;;;;;;;;17.94;63.97;99416.78;2074571;28;20586;-75
2023/01/06 04:39:09;;;;;;;;;;;;;;;18.00;63.94;99413.38;2074044;28;21118;-74
2023/01/06 04:40:10;;;;;;;;;;;;;;;18.07;63.59;99422.34;2070474;28;20495;-76
2023/01/06 04:41:12;;;;;;;;;;;;;;;18.13;63.76;99422.66;2076748;28;19929;-74
2023/01/06 04:42:12;;;;;;;;;;;;;;;18.20;63.42;99420.91;2076747;28;20381;-75
2023/01/06 04:43:15;;;;;;;;;;;;;;;18.25;63.52;99421.22;2075332;28;19977;-76
2023/01/06 04:44:15;;;;;;;;;;;;;;;18.29;63.32;99423.34;2076117;28;19968;-75
2023/01/06 04:45:17;;;;;;;;;;;;;;;18.33;63.29;99413.09;2075605;28;19921;-74
2023/01/06 04:46:17;;;;;;;;;;;;;;;18.39;63.31;99412.34;2073228;28;21011;-76
2023/01/06 04:47:18;;;;;;;;;;;;;;;18.42;63.16;99414.66;2066459;28;19925;-75
2023/01/06 04:48:22;;;;;;;;;;;;;;;18.44;63.18;99418.00;2071012;28;19978;-76
2023/01/06 04:49:24;;;;;;;;;;;;;;;18.49;63.16;99426.31;2072851;28;19928;-75
2023/01/06 04:50:25;;;;;;;;;;;;;;;18.50;63.10;99413.75;2074368;28;19921;-75
2023/01/06 04:51:28;;;;;;;;;;;;;;;18.52;62.96;99420.59;2075539;28;19928;-74
2023/01/06 04:52:28;;;;;;;;;;;;;;;18.55;62.94;99430.13;2078343;28;19954;-74
2023/01/06 04:53:30;;;;;;;;;;;;;;;18.59;62.95;99422.56;2072853;28;19959;-75
2023/01/06 04:54:30;;;;;;;;;;;;;;;18.60;63.10;99416.97;2073555;28;19929;-75
2023/01/06 04:55:32;;;;;;;;;;;;;;;18.60;63.02;99419.66;2080223;28;19929;-74
2023/01/06 04:56:32;;;;;;;;;;;;;;;18.64;62.84;99415.63;2074386;28;19925;-75
2023/01/06 04:57:34;;;;;;;;;;;;;;;18.65;62.93;99421.81;2076795;28;20301;-75
2023/01/06 04:58:35;;;;;;;;;;;;;;;18.68;62.96;99416.91;2077072;28;19920;-75
2023/01/06 04:59:36;;;;;;;;;;;;;;;18.69;62.95;99423.97;2071395;28;19921;-76
2023/01/06 05:00:37;;;;;;;;;;;;;;;18.71;63.21;99421.06;2077820;28;19924;-76
2023/01/06 05:01:38;;;;;;;;;;;;;;;18.70;62.97;99420.25;2072579;28;19929;-74
2023/01/06 05:02:39;;;;;;;;;;;;;;;18.73;63.13;99419.88;2076074;28;19946;-75
2023/01/06 05:03:40;;;;;;;;;;;;;;;18.77;62.95;99425.72;2076490;28;19986;-74
2023/01/06 05:04:41;;;;;;;;;;;;;;;18.81;62.96;99427.03;2066276;28;19932;-76
2023/01/06 05:05:43;;;;;;;;;;;;;;;18.81;62.96;99420.84;2070584;28;19928;-75
2023/01/06 05:06:45;;;;;;;;;;;;;;;18.81;63.21;99424.34;2082850;28;19925;-74
2023/01/06 05:07:46;;;;;;;;;;;;;;;18.86;62.72;99426.47;2079166;28;19921;-75
2023/01/06 05:08:47;;;;;;;;;;;;;;;18.86;62.54;99424.63;2076526;28;19928;-75
2023/01/06 05:09:48;;;;;;;;;;;;;;;18.88;62.89;99427.13;2075340;28;19929;-74
2023/01/06 05:10:49;;;;;;;;;;;;;;;18.88;62.69;99422.56;2073812;28;19931;-76
2023/01/06 05:11:50;;;;;;;;;;;;;;;18.91;62.71;99424.06;2077964;28;19931;-74
2023/01/06 05:12:51;;;;;;;;;;;;;;;18.92;62.49;99423.88;2078691;28;19924;-74
2023/01/06 05:13:53;;;;;;;;;;;;;;;18.91;62.90;99427.56;2073940;28;19960;-75
2023/01/06 05:14:54;;;;;;;;;;;;;;;18.94;62.86;99421.84;2077034;28;19920;-74
2023/01/06 05:15:55;;;;;;;;;;;;;;;18.95;62.85;99428.06;2075200;28;19930;-76
2023/01/06 05:16:56;;;;;;;;;;;;;;;18.97;63.10;99426.00;2079837;28;20479;-74
2023/01/06 05:17:57;;;;;;;;;;;;;;;19.00;62.56;99424.78;2076604;28;19982;-75
2023/01/06 05:18:58;;;;;;;;;;;;;;;19.03;62.70;99432.47;2075407;28;20297;-75
2023/01/06 05:19:59;;;;;;;;;;;;;;;19.03;62.77;99429.78;2075761;28;19925;-76
2023/01/06 05:21:00;;;;;;;;;;;;;;;19.03;62.87;99429.78;2075005;28;20477;-76
2023/01/06 05:22:03;;;;;;;;;;;;;;;19.08;62.44;99430.91;2056452;28;20377;-76
2023/01/06 05:23:03;;;;;;;;;;;;;;;19.11;62.86;99432.38;2075722;28;19982;-75
2023/01/06 05:24:05;;;;;;;;;;;;;;;19.14;62.59;99437.41;2077086;28;19929;-74
2023/01/06 05:25:06;;;;;;;;;;;;;;;19.15;62.74;99436.38;2072938;28;19968;-75
2023/01/06 05:26:09;;;;;;;;;;;;;;;19.13;62.84;99431.16;2071183;28;20676;-76
2023/01/06 05:27:09;;;;;;;;;;;;;;;19.16;62.80;99435.34;2075418;28;19929;-75
2023/01/06 05:28:11;;;;;;;;;;;;;;;19.18;62.57;99438.69;2072030;28;19990;-75
2023/01/06 05:29:12;;;;;;;;;;;;;;;19.21;62.26;99441.00;2076900;28;19940;-76
2023/01/06 05:30:14;;;;;;;;;;;;;;;19.22;62.66;99445.34;2067136;28;21129;-75
2023/01/06 05:31:15;;;;;;;;;;;;;;;19.24;62.45;99442.47;2076106;28;19924;-75
2023/01/06 05:32:16;;;;;;;;;;;;;;;19.23;62.61;99433.59;2074119;28;19925;-74
2023/01/06 05:33:17;;;;;;;;;;;;;;;19.24;62.69;99439.78;2078357;28;20401;-75